Terminal Aerodrome Forecast
Issued by NWS

Home | Current Version | Previous Version | Text Only | Print | Product List | Glossary On
Versions: 1 2 3 4 5 6 7 8 9 10 11 12 13 14 15
000
FTUS43 KAPX 110524
TAFAPN
TAF
KAPN 110524Z 1106/1206 24004KT P6SM SCT090
     FM111200 20005KT P6SM OVC070
     FM111500 17005KT 5SM -SN OVC040
     FM111800 15006KT 1 1/2SM -SN OVC018
     FM120400 14005KT 5SM -SN OVC010=

USA.gov is the U.S. government's official web portal to all federal, state and local government web resources and services.